sensor_id;sensor_type;location;lat;lon;timestamp;temperature;humidity
17639;DHT22;8938;53.546;9.954;2024-03-02T00:00:01;13.00;99.90
17639;DHT22;8938;53.546;9.954;2024-03-02T00:02:39;13.00;99.90
17639;DHT22;8938;53.546;9.954;2024-03-02T00:05:06;13.00;99.90
17639;DHT22;8938;53.546;9.954;2024-03-02T00:07:31;13.00;99.90
17639;DHT22;8938;53.546;9.954;2024-03-02T00:09:57;13.00;99.90
17639;DHT22;8938;53.546;9.954;2024-03-02T00:12:23;13.00;99.90
17639;DHT22;8938;53.546;9.954;2024-03-02T00:14:48;12.90;99.90
17639;DHT22;8938;53.546;9.954;2024-03-02T00:17:24;13.00;99.90
17639;DHT22;8938;53.546;9.954;2024-03-02T00:19:51;13.10;99.90
17639;DHT22;8938;53.546;9.954;2024-03-02T00:22:17;13.20;99.90
17639;DHT22;8938;53.546;9.954;2024-03-02T00:24:43;13.20;99.90
17639;DHT22;8938;53.546;9.954;2024-03-02T00:27:13;13.20;99.90
17639;DHT22;8938;53.546;9.954;2024-03-02T00:29:43;13.30;99.90
17639;DHT22;8938;53.546;9.954;2024-03-02T00:32:13;13.40;99.90
17639;DHT22;8938;53.546;9.954;2024-03-02T00:34:39;13.40;99.90
17639;DHT22;8938;53.546;9.954;2024-03-02T00:37:05;13.40;99.90
17639;DHT22;8938;53.546;9.954;2024-03-02T00:39:31;13.30;99.90
17639;DHT22;8938;53.546;9.954;2024-03-02T00:41:57;13.20;99.90
17639;DHT22;8938;53.546;9.954;2024-03-02T00:44:25;13.10;99.90
17639;DHT22;8938;53.546;9.954;2024-03-02T00:46:53;13.00;99.90
17639;DHT22;8938;53.546;9.954;2024-03-02T00:49:21;12.90;99.90
17639;DHT22;8938;53.546;9.954;2024-03-02T00:51:51;12.80;99.90
17639;DHT22;8938;53.546;9.954;2024-03-02T00:54:22;12.80;99.90
17639;DHT22;8938;53.546;9.954;2024-03-02T00:56:49;12.80;99.90
17639;DHT22;8938;53.546;9.954;2024-03-02T00:59:15;12.80;99.90
17639;DHT22;8938;53.546;9.954;2024-03-02T01:01:40;12.70;99.90
17639;DHT22;8938;53.546;9.954;2024-03-02T01:04:07;12.70;99.90
17639;DHT22;8938;53.546;9.954;2024-03-02T01:06:33;12.80;99.90
17639;DHT22;8938;53.546;9.954;2024-03-02T01:08:59;12.90;99.90
17639;DHT22;8938;53.546;9.954;2024-03-02T01:11:24;12.90;99.90
17639;DHT22;8938;53.546;9.954;2024-03-02T01:13:50;12.90;99.90
17639;DHT22;8938;53.546;9.954;2024-03-02T01:16:17;12.90;99.90
17639;DHT22;8938;53.546;9.954;2024-03-02T01:18:43;13.00;99.90
17639;DHT22;8938;53.546;9.954;2024-03-02T01:21:08;13.00;99.90
17639;DHT22;8938;53.546;9.954;2024-03-02T01:23:34;13.00;99.90
17639;DHT22;8938;53.546;9.954;2024-03-02T01:25:59;13.10;99.90
17639;DHT22;8938;53.546;9.954;2024-03-02T01:28:25;13.10;99.90
17639;DHT22;8938;53.546;9.954;2024-03-02T01:30:50;13.00;99.90
17639;DHT22;8938;53.546;9.954;2024-03-02T01:33:19;13.00;99.90
17639;DHT22;8938;53.546;9.954;2024-03-02T01:35:45;13.00;99.90
17639;DHT22;8938;53.546;9.954;2024-03-02T01:38:11;12.90;99.90
17639;DHT22;8938;53.546;9.954;2024-03-02T01:40:37;12.90;99.90
17639;DHT22;8938;53.546;9.954;2024-03-02T01:43:06;12.90;99.90
17639;DHT22;8938;53.546;9.954;2024-03-02T01:45:33;12.90;99.90
17639;DHT22;8938;53.546;9.954;2024-03-02T01:47:58;12.90;99.90
17639;DHT22;8938;53.546;9.954;2024-03-02T01:50:28;12.90;99.90
17639;DHT22;8938;53.546;9.954;2024-03-02T01:52:58;12.90;99.90
17639;DHT22;8938;53.546;9.954;2024-03-02T01:55:24;12.90;99.90
17639;DHT22;8938;53.546;9.954;2024-03-02T01:57:51;12.90;99.90
17639;DHT22;8938;53.546;9.954;2024-03-02T02:00:18;12.90;99.90
17639;DHT22;8938;53.546;9.954;2024-03-02T02:02:44;12.90;99.90
17639;DHT22;8938;53.546;9.954;2024-03-02T02:05:09;13.00;99.90
17639;DHT22;8938;53.546;9.954;2024-03-02T02:07:35;13.00;99.90
17639;DHT22;8938;53.546;9.954;2024-03-02T02:10:01;13.00;99.90
17639;DHT22;8938;53.546;9.954;2024-03-02T02:12:27;13.00;99.90
17639;DHT22;8938;53.546;9.954;2024-03-02T02:14:53;12.90;99.90
17639;DHT22;8938;53.546;9.954;2024-03-02T02:17:19;13.00;99.90
17639;DHT22;8938;53.546;9.954;2024-03-02T02:19:44;12.90;99.90
17639;DHT22;8938;53.546;9.954;2024-03-02T02:22:10;12.80;99.90
17639;DHT22;8938;53.546;9.954;2024-03-02T02:24:42;12.80;99.90
17639;DHT22;8938;53.546;9.954;2024-03-02T02:27:08;12.70;99.90
17639;DHT22;8938;53.546;9.954;2024-03-02T02:29:35;12.60;99.90
17639;DHT22;8938;53.546;9.954;2024-03-02T02:32:01;12.50;99.90
17639;DHT22;8938;53.546;9.954;2024-03-02T02:34:26;12.40;99.90
17639;DHT22;8938;53.546;9.954;2024-03-02T02:36:52;12.40;99.90
17639;DHT22;8938;53.546;9.954;2024-03-02T02:39:20;12.40;99.90
17639;DHT22;8938;53.546;9.954;2024-03-02T02:41:46;12.30;99.90
17639;DHT22;8938;53.546;9.954;2024-03-02T02:44:12;12.20;99.90
17639;DHT22;8938;53.546;9.954;2024-03-02T02:46:38;12.20;99.90
17639;DHT22;8938;53.546;9.954;2024-03-02T02:49:04;12.10;99.90
17639;DHT22;8938;53.546;9.954;2024-03-02T02:51:30;12.00;99.90
17639;DHT22;8938;53.546;9.954;2024-03-02T02:53:55;11.90;99.90
17639;DHT22;8938;53.546;9.954;2024-03-02T02:56:21;12.00;99.90
17639;DHT22;8938;53.546;9.954;2024-03-02T02:58:46;11.90;99.90
17639;DHT22;8938;53.546;9.954;2024-03-02T03:01:12;11.90;99.90
17639;DHT22;8938;53.546;9.954;2024-03-02T03:03:37;11.90;99.90
17639;DHT22;8938;53.546;9.954;2024-03-02T03:06:03;11.90;99.90
17639;DHT22;8938;53.546;9.954;2024-03-02T03:08:28;12.00;99.90
17639;DHT22;8938;53.546;9.954;2024-03-02T03:10:54;11.90;99.90
17639;DHT22;8938;53.546;9.954;2024-03-02T03:13:20;12.00;99.90
17639;DHT22;8938;53.546;9.954;2024-03-02T03:15:45;12.00;99.90
17639;DHT22;8938;53.546;9.954;2024-03-02T03:18:11;12.00;99.90
17639;DHT22;8938;53.546;9.954;2024-03-02T03:20:36;12.00;99.90
17639;DHT22;8938;53.546;9.954;2024-03-02T03:23:02;12.10;99.90
17639;DHT22;8938;53.546;9.954;2024-03-02T03:25:29;12.20;99.90
17639;DHT22;8938;53.546;9.954;2024-03-02T03:27:55;12.20;99.90
17639;DHT22;8938;53.546;9.954;2024-03-02T03:30:20;12.30;99.90
17639;DHT22;8938;53.546;9.954;2024-03-02T03:32:46;12.30;99.90
17639;DHT22;8938;53.546;9.954;2024-03-02T03:35:13;12.40;99.90
17639;DHT22;8938;53.546;9.954;2024-03-02T03:37:40;12.40;99.90
17639;DHT22;8938;53.546;9.954;2024-03-02T03:40:06;12.40;99.90
17639;DHT22;8938;53.546;9.954;2024-03-02T03:42:35;12.40;99.90
17639;DHT22;8938;53.546;9.954;2024-03-02T03:45:01;12.40;99.90
17639;DHT22;8938;53.546;9.954;2024-03-02T03:47:26;12.30;99.90
17639;DHT22;8938;53.546;9.954;2024-03-02T03:49:52;12.30;99.90
17639;DHT22;8938;53.546;9.954;2024-03-02T03:52:17;12.30;99.90
17639;DHT22;8938;53.546;9.954;2024-03-02T03:54:43;12.30;99.90
17639;DHT22;8938;53.546;9.954;2024-03-02T03:57:10;12.20;99.90
17639;DHT22;8938;53.546;9.954;2024-03-02T03:59:35;12.20;99.90
17639;DHT22;8938;53.546;9.954;2024-03-02T04:02:03;12.20;99.90
17639;DHT22;8938;53.546;9.954;2024-03-02T04:04:28;12.30;99.90
17639;DHT22;8938;53.546;9.954;2024-03-02T04:06:54;12.30;99.90
17639;DHT22;8938;53.546;9.954;2024-03-02T04:09:21;12.20;99.90
17639;DHT22;8938;53.546;9.954;2024-03-02T04:11:46;12.20;99.90
17639;DHT22;8938;53.546;9.954;2024-03-02T04:14:12;12.20;99.90
17639;DHT22;8938;53.546;9.954;2024-03-02T04:16:38;12.20;99.90
17639;DHT22;8938;53.546;9.954;2024-03-02T04:19:04;12.20;99.90
17639;DHT22;8938;53.546;9.954;2024-03-02T04:21:30;12.20;99.90
17639;DHT22;8938;53.546;9.954;2024-03-02T04:23:55;12.10;99.90
17639;DHT22;8938;53.546;9.954;2024-03-02T04:26:27;12.10;99.90
17639;DHT22;8938;53.546;9.954;2024-03-02T04:28:53;12.00;99.90
17639;DHT22;8938;53.546;9.954;2024-03-02T04:31:19;12.00;99.90
17639;DHT22;8938;53.546;9.954;2024-03-02T04:33:45;12.00;99.90
17639;DHT22;8938;53.546;9.954;2024-03-02T04:36:10;12.00;99.90
17639;DHT22;8938;53.546;9.954;2024-03-02T04:38:37;12.10;99.90
17639;DHT22;8938;53.546;9.954;2024-03-02T04:41:04;12.10;99.90
17639;DHT22;8938;53.546;9.954;2024-03-02T04:43:31;12.20;99.90
17639;DHT22;8938;53.546;9.954;2024-03-02T04:45:57;12.30;99.90
17639;DHT22;8938;53.546;9.954;2024-03-02T04:48:23;12.30;99.90
17639;DHT22;8938;53.546;9.954;2024-03-02T04:50:49;12.40;99.90
17639;DHT22;8938;53.546;9.954;2024-03-02T04:53:14;12.40;99.90
17639;DHT22;8938;53.546;9.954;2024-03-02T04:55:40;12.40;99.90
17639;DHT22;8938;53.546;9.954;2024-03-02T04:58:05;12.50;99.90
17639;DHT22;8938;53.546;9.954;2024-03-02T05:00:32;12.50;99.90
17639;DHT22;8938;53.546;9.954;2024-03-02T05:02:57;12.40;99.90
17639;DHT22;8938;53.546;9.954;2024-03-02T05:05:23;12.30;99.90
17639;DHT22;8938;53.546;9.954;2024-03-02T05:07:48;12.20;99.90
17639;DHT22;8938;53.546;9.954;2024-03-02T05:10:14;12.30;99.90
17639;DHT22;8938;53.546;9.954;2024-03-02T05:12:40;12.20;99.90
17639;DHT22;8938;53.546;9.954;2024-03-02T05:15:12;12.10;99.90
17639;DHT22;8938;53.546;9.954;2024-03-02T05:17:39;11.90;99.90
17639;DHT22;8938;53.546;9.954;2024-03-02T05:20:05;11.80;99.90
17639;DHT22;8938;53.546;9.954;2024-03-02T05:22:31;11.80;99.90
17639;DHT22;8938;53.546;9.954;2024-03-02T05:24:57;11.80;99.90
17639;DHT22;8938;53.546;9.954;2024-03-02T05:27:24;11.70;99.90
17639;DHT22;8938;53.546;9.954;2024-03-02T05:29:50;11.70;99.90
17639;DHT22;8938;53.546;9.954;2024-03-02T05:32:15;11.70;99.90
17639;DHT22;8938;53.546;9.954;2024-03-02T05:34:41;11.70;99.90
17639;DHT22;8938;53.546;9.954;2024-03-02T05:37:06;11.80;99.90
17639;DHT22;8938;53.546;9.954;2024-03-02T05:39:32;11.80;99.90
17639;DHT22;8938;53.546;9.954;2024-03-02T05:41:58;11.90;99.90
17639;DHT22;8938;53.546;9.954;2024-03-02T05:44:23;11.90;99.90
17639;DHT22;8938;53.546;9.954;2024-03-02T05:46:49;11.90;99.90
17639;DHT22;8938;53.546;9.954;2024-03-02T05:49:14;12.00;99.90
17639;DHT22;8938;53.546;9.954;2024-03-02T05:51:40;12.00;99.90
17639;DHT22;8938;53.546;9.954;2024-03-02T05:54:05;11.90;99.90
17639;DHT22;8938;53.546;9.954;2024-03-02T05:56:31;11.80;99.90
17639;DHT22;8938;53.546;9.954;2024-03-02T05:58:56;11.70;99.90
17639;DHT22;8938;53.546;9.954;2024-03-02T06:01:45;11.70;99.90
17639;DHT22;8938;53.546;9.954;2024-03-02T06:04:17;11.70;99.90
17639;DHT22;8938;53.546;9.954;2024-03-02T06:06:43;11.70;99.90
17639;DHT22;8938;53.546;9.954;2024-03-02T06:09:08;11.70;99.90
17639;DHT22;8938;53.546;9.954;2024-03-02T06:11:34;11.60;99.90
17639;DHT22;8938;53.546;9.954;2024-03-02T06:14:00;11.60;99.90
17639;DHT22;8938;53.546;9.954;2024-03-02T06:16:26;11.60;99.90
17639;DHT22;8938;53.546;9.954;2024-03-02T06:18:52;11.70;99.90
17639;DHT22;8938;53.546;9.954;2024-03-02T06:21:19;11.70;99.90
17639;DHT22;8938;53.546;9.954;2024-03-02T06:23:45;11.80;99.90
17639;DHT22;8938;53.546;9.954;2024-03-02T06:26:11;11.70;99.90
17639;DHT22;8938;53.546;9.954;2024-03-02T06:28:37;11.80;99.90
17639;DHT22;8938;53.546;9.954;2024-03-02T06:31:03;11.80;99.90
17639;DHT22;8938;53.546;9.954;2024-03-02T06:33:29;11.80;99.90
17639;DHT22;8938;53.546;9.954;2024-03-02T06:35:55;11.70;99.90
17639;DHT22;8938;53.546;9.954;2024-03-02T06:38:20;11.60;99.90
17639;DHT22;8938;53.546;9.954;2024-03-02T06:40:46;11.50;99.90
17639;DHT22;8938;53.546;9.954;2024-03-02T06:43:11;11.40;99.90
17639;DHT22;8938;53.546;9.954;2024-03-02T06:45:37;11.30;99.90
17639;DHT22;8938;53.546;9.954;2024-03-02T06:48:03;11.40;99.90
17639;DHT22;8938;53.546;9.954;2024-03-02T06:50:29;11.30;99.90
17639;DHT22;8938;53.546;9.954;2024-03-02T06:52:55;11.30;99.90
17639;DHT22;8938;53.546;9.954;2024-03-02T06:55:21;11.30;99.90
17639;DHT22;8938;53.546;9.954;2024-03-02T06:57:47;11.30;99.90
17639;DHT22;8938;53.546;9.954;2024-03-02T07:00:13;11.30;99.90
17639;DHT22;8938;53.546;9.954;2024-03-02T07:02:39;11.40;99.90
17639;DHT22;8938;53.546;9.954;2024-03-02T07:05:07;11.40;99.90
17639;DHT22;8938;53.546;9.954;2024-03-02T07:07:33;11.50;99.90
17639;DHT22;8938;53.546;9.954;2024-03-02T07:10:00;11.50;99.90
17639;DHT22;8938;53.546;9.954;2024-03-02T07:12:26;11.40;99.90
17639;DHT22;8938;53.546;9.954;2024-03-02T07:14:51;11.70;99.90
17639;DHT22;8938;53.546;9.954;2024-03-02T07:17:30;11.80;99.90
17639;DHT22;8938;53.546;9.954;2024-03-02T07:19:56;11.90;99.90
17639;DHT22;8938;53.546;9.954;2024-03-02T07:22:22;11.90;99.90
17639;DHT22;8938;53.546;9.954;2024-03-02T07:24:48;11.90;99.90
17639;DHT22;8938;53.546;9.954;2024-03-02T07:27:14;12.00;99.90
17639;DHT22;8938;53.546;9.954;2024-03-02T07:29:40;12.10;99.90
17639;DHT22;8938;53.546;9.954;2024-03-02T07:32:07;12.20;99.90
17639;DHT22;8938;53.546;9.954;2024-03-02T07:34:33;12.20;99.90
17639;DHT22;8938;53.546;9.954;2024-03-02T07:36:59;12.30;99.90
17639;DHT22;8938;53.546;9.954;2024-03-02T07:39:25;12.20;99.90
17639;DHT22;8938;53.546;9.954;2024-03-02T07:41:51;12.30;99.90
17639;DHT22;8938;53.546;9.954;2024-03-02T07:44:16;12.30;99.90
17639;DHT22;8938;53.546;9.954;2024-03-02T07:46:45;12.30;99.90
17639;DHT22;8938;53.546;9.954;2024-03-02T07:49:12;12.20;99.90
17639;DHT22;8938;53.546;9.954;2024-03-02T07:51:39;12.30;99.90
17639;DHT22;8938;53.546;9.954;2024-03-02T07:54:04;12.30;99.90
17639;DHT22;8938;53.546;9.954;2024-03-02T07:56:30;12.30;99.90
17639;DHT22;8938;53.546;9.954;2024-03-02T07:58:56;12.30;99.90
17639;DHT22;8938;53.546;9.954;2024-03-02T08:01:22;12.40;99.90
17639;DHT22;8938;53.546;9.954;2024-03-02T08:03:48;12.50;99.90
17639;DHT22;8938;53.546;9.954;2024-03-02T08:06:16;12.50;99.90
17639;DHT22;8938;53.546;9.954;2024-03-02T08:08:41;12.50;99.90
17639;DHT22;8938;53.546;9.954;2024-03-02T08:11:07;12.50;99.90
17639;DHT22;8938;53.546;9.954;2024-03-02T08:13:32;12.50;99.90
17639;DHT22;8938;53.546;9.954;2024-03-02T08:15:58;12.60;99.90
17639;DHT22;8938;53.546;9.954;2024-03-02T08:18:24;12.70;99.90
17639;DHT22;8938;53.546;9.954;2024-03-02T08:20:50;12.60;99.90
17639;DHT22;8938;53.546;9.954;2024-03-02T08:23:16;12.70;99.90
17639;DHT22;8938;53.546;9.954;2024-03-02T08:25:42;12.60;99.90
17639;DHT22;8938;53.546;9.954;2024-03-02T08:28:07;12.50;99.90
17639;DHT22;8938;53.546;9.954;2024-03-02T08:30:33;12.50;99.90
17639;DHT22;8938;53.546;9.954;2024-03-02T08:32:59;12.60;99.90
17639;DHT22;8938;53.546;9.954;2024-03-02T08:35:24;12.70;99.90
17639;DHT22;8938;53.546;9.954;2024-03-02T08:37:50;12.70;99.90
17639;DHT22;8938;53.546;9.954;2024-03-02T08:40:16;12.80;99.90
17639;DHT22;8938;53.546;9.954;2024-03-02T08:42:41;12.80;99.90
17639;DHT22;8938;53.546;9.954;2024-03-02T08:45:07;12.80;99.90
17639;DHT22;8938;53.546;9.954;2024-03-02T08:47:33;12.80;99.90
17639;DHT22;8938;53.546;9.954;2024-03-02T08:50:00;12.80;99.90
17639;DHT22;8938;53.546;9.954;2024-03-02T08:52:26;12.70;99.90
17639;DHT22;8938;53.546;9.954;2024-03-02T08:54:51;12.80;99.90
17639;DHT22;8938;53.546;9.954;2024-03-02T08:57:17;13.00;99.90
17639;DHT22;8938;53.546;9.954;2024-03-02T08:59:42;13.10;99.90
17639;DHT22;8938;53.546;9.954;2024-03-02T09:02:09;13.30;99.90
17639;DHT22;8938;53.546;9.954;2024-03-02T09:04:36;13.40;99.90
17639;DHT22;8938;53.546;9.954;2024-03-02T09:07:01;13.60;99.90
17639;DHT22;8938;53.546;9.954;2024-03-02T09:09:27;13.70;99.90
17639;DHT22;8938;53.546;9.954;2024-03-02T09:11:52;13.80;99.90
17639;DHT22;8938;53.546;9.954;2024-03-02T09:14:20;13.90;99.90
17639;DHT22;8938;53.546;9.954;2024-03-02T09:16:46;13.90;99.90
17639;DHT22;8938;53.546;9.954;2024-03-02T09:19:12;13.90;99.90
17639;DHT22;8938;53.546;9.954;2024-03-02T09:21:37;13.90;99.90
17639;DHT22;8938;53.546;9.954;2024-03-02T09:24:03;14.00;99.90
17639;DHT22;8938;53.546;9.954;2024-03-02T09:26:29;14.10;99.90
17639;DHT22;8938;53.546;9.954;2024-03-02T09:28:54;14.20;99.90
17639;DHT22;8938;53.546;9.954;2024-03-02T09:31:20;14.30;99.90
17639;DHT22;8938;53.546;9.954;2024-03-02T09:33:46;14.50;99.90
17639;DHT22;8938;53.546;9.954;2024-03-02T09:36:22;14.70;99.90
17639;DHT22;8938;53.546;9.954;2024-03-02T09:38:48;15.00;99.90
17639;DHT22;8938;53.546;9.954;2024-03-02T09:41:14;15.40;99.90
17639;DHT22;8938;53.546;9.954;2024-03-02T09:43:40;15.80;99.90
17639;DHT22;8938;53.546;9.954;2024-03-02T09:46:10;16.30;99.90
17639;DHT22;8938;53.546;9.954;2024-03-02T09:48:36;16.80;99.90
17639;DHT22;8938;53.546;9.954;2024-03-02T09:51:01;17.20;99.90
17639;DHT22;8938;53.546;9.954;2024-03-02T09:53:32;17.10;99.90
17639;DHT22;8938;53.546;9.954;2024-03-02T09:55:59;17.00;99.90
17639;DHT22;8938;53.546;9.954;2024-03-02T09:58:25;16.90;99.90
17639;DHT22;8938;53.546;9.954;2024-03-02T10:00:50;16.90;99.90
17639;DHT22;8938;53.546;9.954;2024-03-02T10:05:44;16.80;99.90
17639;DHT22;8938;53.546;9.954;2024-03-02T10:08:09;16.80;99.90
17639;DHT22;8938;53.546;9.954;2024-03-02T10:10:39;16.70;99.90
17639;DHT22;8938;53.546;9.954;2024-03-02T10:13:10;16.50;99.90
17639;DHT22;8938;53.546;9.954;2024-03-02T10:15:36;16.50;99.90
17639;DHT22;8938;53.546;9.954;2024-03-02T10:18:12;16.50;99.90
17639;DHT22;8938;53.546;9.954;2024-03-02T10:20:39;16.40;99.90
17639;DHT22;8938;53.546;9.954;2024-03-02T10:23:16;16.40;99.90
17639;DHT22;8938;53.546;9.954;2024-03-02T10:25:43;16.40;99.90
17639;DHT22;8938;53.546;9.954;2024-03-02T10:28:09;16.40;99.90
17639;DHT22;8938;53.546;9.954;2024-03-02T10:30:35;16.40;99.90
17639;DHT22;8938;53.546;9.954;2024-03-02T10:33:05;16.30;99.90
17639;DHT22;8938;53.546;9.954;2024-03-02T10:35:31;16.30;99.90
17639;DHT22;8938;53.546;9.954;2024-03-02T10:37:59;16.30;99.90
17639;DHT22;8938;53.546;9.954;2024-03-02T10:40:24;15.90;99.90
17639;DHT22;8938;53.546;9.954;2024-03-02T10:42:51;15.90;99.90
17639;DHT22;8938;53.546;9.954;2024-03-02T10:45:18;15.80;99.90
17639;DHT22;8938;53.546;9.954;2024-03-02T10:47:44;15.80;99.90
17639;DHT22;8938;53.546;9.954;2024-03-02T10:50:11;15.70;99.90
17639;DHT22;8938;53.546;9.954;2024-03-02T10:52:37;15.60;99.90
17639;DHT22;8938;53.546;9.954;2024-03-02T10:55:05;15.60;99.90
17639;DHT22;8938;53.546;9.954;2024-03-02T11:00:15;15.70;99.90
17639;DHT22;8938;53.546;9.954;2024-03-02T11:02:48;15.90;99.90
17639;DHT22;8938;53.546;9.954;2024-03-02T11:05:23;16.00;99.90
17639;DHT22;8938;53.546;9.954;2024-03-02T11:07:57;16.20;99.90
17639;DHT22;8938;53.546;9.954;2024-03-02T11:10:23;16.30;99.90
17639;DHT22;8938;53.546;9.954;2024-03-02T11:13:16;16.20;99.90
17639;DHT22;8938;53.546;9.954;2024-03-02T11:15:45;16.10;99.90
17639;DHT22;8938;53.546;9.954;2024-03-02T11:18:12;16.10;99.90
17639;DHT22;8938;53.546;9.954;2024-03-02T11:20:39;16.10;99.90
17639;DHT22;8938;53.546;9.954;2024-03-02T11:23:09;16.10;99.90
17639;DHT22;8938;53.546;9.954;2024-03-02T11:25:35;16.10;99.90
17639;DHT22;8938;53.546;9.954;2024-03-02T11:28:03;16.10;99.90
17639;DHT22;8938;53.546;9.954;2024-03-02T11:32:57;16.40;99.90
17639;DHT22;8938;53.546;9.954;2024-03-02T11:35:27;16.50;99.90
17639;DHT22;8938;53.546;9.954;2024-03-02T11:37:56;16.50;99.90
17639;DHT22;8938;53.546;9.954;2024-03-02T11:40:27;16.60;99.90
17639;DHT22;8938;53.546;9.954;2024-03-02T11:42:53;16.70;99.90
17639;DHT22;8938;53.546;9.954;2024-03-02T11:45:23;16.70;99.90
17639;DHT22;8938;53.546;9.954;2024-03-02T11:47:54;16.50;99.90
17639;DHT22;8938;53.546;9.954;2024-03-02T11:50:42;16.50;99.90
17639;DHT22;8938;53.546;9.954;2024-03-02T11:53:11;16.50;99.90
17639;DHT22;8938;53.546;9.954;2024-03-02T11:55:38;16.60;99.90
17639;DHT22;8938;53.546;9.954;2024-03-02T11:58:05;16.70;99.90
17639;DHT22;8938;53.546;9.954;2024-03-02T12:00:31;16.70;99.90
17639;DHT22;8938;53.546;9.954;2024-03-02T12:03:01;16.80;99.90
17639;DHT22;8938;53.546;9.954;2024-03-02T12:05:27;16.90;99.90
17639;DHT22;8938;53.546;9.954;2024-03-02T12:08:01;17.10;99.90
17639;DHT22;8938;53.546;9.954;2024-03-02T12:10:27;16.90;99.90
17639;DHT22;8938;53.546;9.954;2024-03-02T12:13:00;16.80;99.90
17639;DHT22;8938;53.546;9.954;2024-03-02T12:15:31;16.80;99.90
17639;DHT22;8938;53.546;9.954;2024-03-02T12:17:58;16.70;99.90
17639;DHT22;8938;53.546;9.954;2024-03-02T12:20:26;16.90;99.90
17639;DHT22;8938;53.546;9.954;2024-03-02T12:22:52;16.70;99.90
17639;DHT22;8938;53.546;9.954;2024-03-02T12:25:19;16.80;99.90
17639;DHT22;8938;53.546;9.954;2024-03-02T12:27:46;16.80;99.90
17639;DHT22;8938;53.546;9.954;2024-03-02T12:30:12;16.80;99.90
17639;DHT22;8938;53.546;9.954;2024-03-02T12:32:40;16.90;99.90
17639;DHT22;8938;53.546;9.954;2024-03-02T12:35:05;17.00;99.90
17639;DHT22;8938;53.546;9.954;2024-03-02T12:37:31;16.90;99.90
17639;DHT22;8938;53.546;9.954;2024-03-02T12:39:57;16.70;99.90
17639;DHT22;8938;53.546;9.954;2024-03-02T12:42:24;16.60;99.90
17639;DHT22;8938;53.546;9.954;2024-03-02T12:44:51;16.50;99.90
17639;DHT22;8938;53.546;9.954;2024-03-02T12:47:19;16.40;99.90
17639;DHT22;8938;53.546;9.954;2024-03-02T12:49:45;16.50;99.90
17639;DHT22;8938;53.546;9.954;2024-03-02T12:52:13;16.60;99.90
17639;DHT22;8938;53.546;9.954;2024-03-02T12:54:38;16.70;99.90
17639;DHT22;8938;53.546;9.954;2024-03-02T12:57:04;16.90;99.90
17639;DHT22;8938;53.546;9.954;2024-03-02T12:59:30;17.00;99.90
17639;DHT22;8938;53.546;9.954;2024-03-02T13:01:56;17.00;99.90
17639;DHT22;8938;53.546;9.954;2024-03-02T13:04:28;16.90;99.90
17639;DHT22;8938;53.546;9.954;2024-03-02T13:06:55;16.90;99.90
17639;DHT22;8938;53.546;9.954;2024-03-02T13:09:23;16.80;99.90
17639;DHT22;8938;53.546;9.954;2024-03-02T13:11:49;16.60;99.90
17639;DHT22;8938;53.546;9.954;2024-03-02T13:14:14;16.60;99.90
17639;DHT22;8938;53.546;9.954;2024-03-02T13:16:41;16.60;99.90
17639;DHT22;8938;53.546;9.954;2024-03-02T13:19:11;16.70;99.90
17639;DHT22;8938;53.546;9.954;2024-03-02T13:21:37;16.50;99.90
17639;DHT22;8938;53.546;9.954;2024-03-02T13:24:03;16.40;99.90
17639;DHT22;8938;53.546;9.954;2024-03-02T13:26:28;16.40;99.90
17639;DHT22;8938;53.546;9.954;2024-03-02T13:28:54;16.40;99.90
17639;DHT22;8938;53.546;9.954;2024-03-02T13:31:19;16.40;99.90
17639;DHT22;8938;53.546;9.954;2024-03-02T13:33:46;16.40;99.90
17639;DHT22;8938;53.546;9.954;2024-03-02T13:36:12;16.40;99.90
17639;DHT22;8938;53.546;9.954;2024-03-02T13:38:37;16.40;99.90
17639;DHT22;8938;53.546;9.954;2024-03-02T13:41:03;16.40;99.90
17639;DHT22;8938;53.546;9.954;2024-03-02T13:43:29;16.60;99.90
17639;DHT22;8938;53.546;9.954;2024-03-02T13:45:58;16.70;99.90
17639;DHT22;8938;53.546;9.954;2024-03-02T13:48:23;16.90;99.90
17639;DHT22;8938;53.546;9.954;2024-03-02T13:50:51;17.10;99.90
17639;DHT22;8938;53.546;9.954;2024-03-02T13:53:18;17.10;99.90
17639;DHT22;8938;53.546;9.954;2024-03-02T13:55:44;17.30;99.90
17639;DHT22;8938;53.546;9.954;2024-03-02T13:58:10;17.20;99.90
17639;DHT22;8938;53.546;9.954;2024-03-02T14:00:39;17.20;99.90
17639;DHT22;8938;53.546;9.954;2024-03-02T14:03:06;17.00;99.90
17639;DHT22;8938;53.546;9.954;2024-03-02T14:05:32;17.20;99.90
17639;DHT22;8938;53.546;9.954;2024-03-02T14:07:58;17.10;99.90
17639;DHT22;8938;53.546;9.954;2024-03-02T14:10:25;17.10;99.90
17639;DHT22;8938;53.546;9.954;2024-03-02T14:12:51;17.00;99.90
17639;DHT22;8938;53.546;9.954;2024-03-02T14:15:16;16.90;99.90
17639;DHT22;8938;53.546;9.954;2024-03-02T14:17:42;16.90;99.90
17639;DHT22;8938;53.546;9.954;2024-03-02T14:20:08;16.80;99.90
17639;DHT22;8938;53.546;9.954;2024-03-02T14:22:36;16.80;99.90
17639;DHT22;8938;53.546;9.954;2024-03-02T14:25:03;16.80;99.90
17639;DHT22;8938;53.546;9.954;2024-03-02T14:27:29;16.80;99.90
17639;DHT22;8938;53.546;9.954;2024-03-02T14:29:54;16.70;99.90
17639;DHT22;8938;53.546;9.954;2024-03-02T14:32:20;16.70;99.90
17639;DHT22;8938;53.546;9.954;2024-03-02T14:34:45;16.50;99.90
17639;DHT22;8938;53.546;9.954;2024-03-02T14:37:13;16.40;99.90
17639;DHT22;8938;53.546;9.954;2024-03-02T14:39:38;16.50;99.90
17639;DHT22;8938;53.546;9.954;2024-03-02T14:42:04;16.60;99.90
17639;DHT22;8938;53.546;9.954;2024-03-02T14:44:30;16.60;99.90
17639;DHT22;8938;53.546;9.954;2024-03-02T14:46:56;16.70;99.90
17639;DHT22;8938;53.546;9.954;2024-03-02T14:49:24;16.60;99.90
17639;DHT22;8938;53.546;9.954;2024-03-02T14:51:50;16.60;99.90
17639;DHT22;8938;53.546;9.954;2024-03-02T14:54:15;16.70;99.90
17639;DHT22;8938;53.546;9.954;2024-03-02T14:56:41;16.60;99.90
17639;DHT22;8938;53.546;9.954;2024-03-02T14:59:06;16.60;99.90
17639;DHT22;8938;53.546;9.954;2024-03-02T15:01:32;16.70;99.90
17639;DHT22;8938;53.546;9.954;2024-03-02T15:03:58;16.50;99.90
17639;DHT22;8938;53.546;9.954;2024-03-02T15:06:23;16.40;99.90
17639;DHT22;8938;53.546;9.954;2024-03-02T15:08:49;16.40;99.90
17639;DHT22;8938;53.546;9.954;2024-03-02T15:11:15;16.40;99.90
17639;DHT22;8938;53.546;9.954;2024-03-02T15:13:40;16.50;99.90
17639;DHT22;8938;53.546;9.954;2024-03-02T15:16:07;16.50;99.90
17639;DHT22;8938;53.546;9.954;2024-03-02T15:18:32;16.50;99.90
17639;DHT22;8938;53.546;9.954;2024-03-02T15:20:58;16.40;99.90
17639;DHT22;8938;53.546;9.954;2024-03-02T15:23:23;16.60;99.90
17639;DHT22;8938;53.546;9.954;2024-03-02T15:25:49;16.60;99.90
17639;DHT22;8938;53.546;9.954;2024-03-02T15:28:15;16.80;99.90
17639;DHT22;8938;53.546;9.954;2024-03-02T15:30:40;16.80;99.90
17639;DHT22;8938;53.546;9.954;2024-03-02T15:33:06;16.80;99.90
17639;DHT22;8938;53.546;9.954;2024-03-02T15:35:32;16.70;99.90
17639;DHT22;8938;53.546;9.954;2024-03-02T15:37:58;16.60;99.90
17639;DHT22;8938;53.546;9.954;2024-03-02T15:40:24;16.40;99.90
17639;DHT22;8938;53.546;9.954;2024-03-02T15:42:50;16.40;99.90
17639;DHT22;8938;53.546;9.954;2024-03-02T15:45:15;16.30;99.90
17639;DHT22;8938;53.546;9.954;2024-03-02T15:47:41;16.20;99.90